Time;durP1;ratioP1;P1;durP2;ratioP2;P2;SDS_P1;SDS_P2;PMS_P1;PMS_P2;Temp;Humidity;BMP_temperature;BMP_pressure;BME280_temperature;BME280_humidity;BME280_pressure;Samples;Min_cycle;Max_cycle;Signal;HPM_P1;HPM_P2
2023/12/19 00:00:07;;;;;;;10.20;5.40;;;;;;;0.66;98.91;100761.25;337445;28;4741;-77
2023/12/19 00:00:19;;;;;;;9.85;5.63;;;;;;;0.68;98.81;100758.75;334004;28;18119;-77
2023/12/19 00:00:31;;;;;;;10.23;5.70;;;;;;;0.68;99.31;100754.50;337032;28;5270;-77
2023/12/19 00:00:44;;;;;;;10.20;5.68;;;;;;;0.71;98.87;100758.84;331979;29;17567;-77
2023/12/19 00:00:56;;;;;;;10.38;5.85;;;;;;;0.69;99.48;100756.25;335134;29;4589;-77
2023/12/19 00:01:08;;;;;;;10.20;5.78;;;;;;;0.70;99.03;100757.94;333188;28;18398;-77
2023/12/19 00:01:21;;;;;;;9.57;5.63;;;;;;;0.70;99.27;100752.84;336001;28;4738;-77
2023/12/19 00:01:33;;;;;;;11.15;5.60;;;;;;;0.72;99.25;100756.28;332768;28;4658;-77
2023/12/19 00:01:48;;;;;;;11.63;5.53;;;;;;;0.72;99.72;100760.56;336056;29;4582;-77
2023/12/19 00:02:00;;;;;;;10.40;5.63;;;;;;;0.72;98.97;100750.31;333322;29;17566;-78
2023/12/19 00:02:12;;;;;;;10.35;5.90;;;;;;;0.73;99.64;100752.06;330913;28;4629;-77
2023/12/19 00:02:24;;;;;;;10.48;5.70;;;;;;;0.73;99.18;100747.81;332381;29;16296;-77
2023/12/19 00:02:36;;;;;;;10.70;5.75;;;;;;;0.72;99.38;100751.19;334982;29;4641;-77
2023/12/19 00:02:48;;;;;;;10.63;6.18;;;;;;;0.71;99.63;100744.34;336324;28;4870;-77
2023/12/19 00:03:00;;;;;;;11.75;6.10;;;;;;;0.71;98.98;100743.50;333670;28;18761;-77
2023/12/19 00:03:12;;;;;;;10.40;5.47;;;;;;;0.73;99.82;100747.81;334995;28;5074;-77
2023/12/19 00:03:24;;;;;;;10.85;5.20;;;;;;;0.75;99.21;100743.59;333780;28;18906;-77
2023/12/19 00:03:36;;;;;;;12.43;5.93;;;;;;;0.75;99.51;100746.16;336434;28;5239;-77
2023/12/19 00:03:48;;;;;;;12.95;6.18;;;;;;;0.77;99.82;100744.50;335753;28;10256;-77
2023/12/19 00:04:01;;;;;;;11.52;5.85;;;;;;;0.78;99.70;100741.09;333079;28;18333;-77
2023/12/19 00:04:15;;;;;;;10.82;5.80;;;;;;;0.79;99.11;100740.28;336085;28;5401;-77
2023/12/19 00:04:28;;;;;;;11.43;6.25;;;;;;;0.81;99.48;100739.47;332509;28;21661;-77
2023/12/19 00:04:41;;;;;;;11.10;5.93;;;;;;;0.84;99.16;100739.53;331765;29;17930;-77
2023/12/19 00:04:53;;;;;;;9.50;5.50;;;;;;;0.84;99.55;100739.53;330223;28;5465;-77
2023/12/19 00:05:07;;;;;;;8.80;5.47;;;;;;;0.85;98.78;100736.16;332859;28;11829;-77
2023/12/19 00:05:19;;;;;;;10.43;5.88;;;;;;;0.86;99.34;100735.31;332045;29;16470;-77
2023/12/19 00:05:32;;;;;;;12.27;6.40;;;;;;;0.88;98.88;100741.34;334350;28;4582;-77
2023/12/19 00:05:44;;;;;;;12.82;5.97;;;;;;;0.87;99.14;100734.50;333901;28;5464;-77
2023/12/19 00:05:56;;;;;;;13.10;5.72;;;;;;;0.86;98.58;100730.19;333663;29;18360;-77
2023/12/19 00:06:08;;;;;;;12.50;5.93;;;;;;;0.84;98.54;100734.41;334716;29;5095;-77
2023/12/19 00:06:20;;;;;;;11.43;5.97;;;;;;;0.84;98.65;100734.41;331794;29;18408;-77
2023/12/19 00:06:33;;;;;;;11.57;5.88;;;;;;;0.83;98.87;100733.56;327191;29;5593;-77
2023/12/19 00:06:45;;;;;;;12.30;6.00;;;;;;;0.84;98.49;100734.41;334294;28;11283;-77
2023/12/19 00:06:57;;;;;;;13.27;6.07;;;;;;;0.85;99.04;100731.03;335818;28;5304;-77
2023/12/19 00:07:09;;;;;;;13.48;6.22;;;;;;;0.85;99.12;100729.34;335646;28;6700;-77
2023/12/19 00:07:21;;;;;;;12.80;6.22;;;;;;;0.86;99.09;100732.75;332018;29;12990;-77
2023/12/19 00:07:33;;;;;;;12.40;5.95;;;;;;;0.87;98.91;100729.38;334795;28;5395;-77
2023/12/19 00:07:46;;;;;;;10.05;5.50;;;;;;;0.89;98.69;100727.72;334035;29;5371;-77
2023/12/19 00:07:58;;;;;;;10.02;5.80;;;;;;;0.90;99.05;100734.56;332538;29;17292;-77
2023/12/19 00:08:09;;;;;;;11.98;6.18;;;;;;;0.89;98.91;100728.56;334297;28;5307;-77
2023/12/19 00:08:21;;;;;;;12.75;6.60;;;;;;;0.87;98.54;100724.25;333380;28;18330;-77
2023/12/19 00:08:36;;;;;;;12.80;6.53;;;;;;;0.87;98.50;100720.00;336707;28;5169;-77
2023/12/19 00:08:48;;;;;;;13.60;6.32;;;;;;;0.89;98.33;100723.47;332982;28;18042;-77
2023/12/19 00:09:00;;;;;;;13.25;6.57;;;;;;;0.91;98.90;100715.81;335461;28;4707;-77
2023/12/19 00:09:12;;;;;;;11.30;6.45;;;;;;;0.89;98.77;100717.47;335719;28;17252;-77
2023/12/19 00:09:25;;;;;;;12.68;6.47;;;;;;;0.88;98.78;100715.72;337119;28;4547;-77
2023/12/19 00:09:37;;;;;;;10.50;6.22;;;;;;;0.89;98.19;100713.22;333493;28;18053;-77
2023/12/19 00:09:49;;;;;;;13.43;6.35;;;;;;;0.90;98.32;100714.06;336371;28;5691;-77
2023/12/19 00:10:01;;;;;;;16.00;6.38;;;;;;;0.91;98.75;100711.56;333827;28;18144;-77
2023/12/19 00:10:13;;;;;;;16.17;6.40;;;;;;;0.92;98.77;100712.41;336147;28;4751;-77
2023/12/19 00:10:26;;;;;;;14.07;6.25;;;;;;;0.94;98.86;100710.75;335763;28;17964;-77
2023/12/19 00:10:38;;;;;;;11.15;6.00;;;;;;;0.92;98.12;100709.84;333423;28;17922;-77
2023/12/19 00:10:50;;;;;;;11.55;6.22;;;;;;;0.92;98.49;100712.41;332011;28;4725;-77
2023/12/19 00:11:02;;;;;;;12.35;6.65;;;;;;;0.92;98.96;100707.28;333451;28;18643;-77
2023/12/19 00:11:14;;;;;;;12.25;6.53;;;;;;;0.93;98.78;100704.78;336036;28;4772;-77
2023/12/19 00:11:26;;;;;;;10.68;6.03;;;;;;;0.94;98.95;100705.63;333631;28;13281;-77
2023/12/19 00:11:38;;;;;;;10.25;6.00;;;;;;;0.94;98.50;100701.38;336196;28;5449;-77
2023/12/19 00:11:50;;;;;;;9.57;5.88;;;;;;;0.95;98.72;100702.25;336610;28;5398;-77
2023/12/19 00:12:04;;;;;;;9.50;5.53;;;;;;;0.96;98.77;100703.97;328930;28;18177;-77
2023/12/19 00:12:16;;;;;;;9.63;5.65;;;;;;;0.93;98.12;100699.66;334245;28;5540;-77
2023/12/19 00:12:28;;;;;;;8.73;5.82;;;;;;;0.92;98.53;100699.63;336436;28;4702;-77
2023/12/19 00:12:40;;;;;;;9.05;5.72;;;;;;;0.93;98.77;100704.78;336279;28;4737;-77
2023/12/19 00:12:53;;;;;;;8.98;5.45;;;;;;;0.94;97.85;100703.06;333419;28;18065;-77
2023/12/19 00:13:05;;;;;;;9.00;5.50;;;;;;;0.94;98.18;100698.81;336052;28;4601;-77
2023/12/19 00:13:17;;;;;;;9.27;5.38;;;;;;;0.95;97.89;100702.25;333844;28;4764;-77
2023/12/19 00:13:29;;;;;;;8.73;5.15;;;;;;;0.96;98.34;100701.41;335179;29;4642;-77
2023/12/19 00:13:41;;;;;;;9.48;4.97;;;;;;;0.96;97.88;100706.53;329294;29;4762;-77
2023/12/19 00:13:53;;;;;;;9.43;5.07;;;;;;;0.91;98.02;100701.31;331275;29;5003;-77
2023/12/19 00:14:06;;;;;;;9.30;5.40;;;;;;;0.89;97.85;100699.56;334718;29;5031;-77
2023/12/19 00:14:18;;;;;;;9.45;6.13;;;;;;;0.86;98.08;100702.03;331604;29;17783;-77
2023/12/19 00:14:30;;;;;;;10.27;6.07;;;;;;;0.78;97.61;100697.59;333419;29;4849;-77
2023/12/19 00:14:42;;;;;;;11.43;6.10;;;;;;;0.82;98.08;100713.03;332250;29;12485;-77
2023/12/19 00:14:54;;;;;;;12.27;6.07;;;;;;;0.81;98.20;100696.81;334698;29;5107;-77
2023/12/19 00:15:07;;;;;;;10.70;5.65;;;;;;;0.82;98.51;100700.22;334757;28;4560;-77
2023/12/19 00:15:22;;;;;;;10.20;5.40;;;;;;;0.72;98.46;100700.00;332521;29;17696;-77
2023/12/19 00:15:35;;;;;;;10.10;5.40;;;;;;;0.65;98.44;100704.94;333843;28;18062;-77
2023/12/19 00:15:47;;;;;;;9.50;5.70;;;;;;;0.69;98.77;100709.31;335205;28;17860;-77
2023/12/19 00:15:59;;;;;;;9.07;5.53;;;;;;;0.72;99.19;100704.25;337872;28;4533;-77
2023/12/19 00:16:12;;;;;;;9.00;5.30;;;;;;;0.76;98.73;100700.94;336132;28;5807;-77
2023/12/19 00:16:24;;;;;;;8.98;5.07;;;;;;;0.78;99.16;100705.25;335943;28;17381;-77
2023/12/19 00:16:36;;;;;;;9.98;5.55;;;;;;;0.81;98.80;100703.63;337233;28;4837;-77
2023/12/19 00:16:48;;;;;;;9.55;5.25;;;;;;;0.82;99.06;100702.78;334081;28;17814;-77
2023/12/19 00:17:01;;;;;;;11.10;5.00;;;;;;;0.82;98.27;100700.22;336572;28;4530;-77
2023/12/19 00:17:13;;;;;;;12.23;5.40;;;;;;;0.85;98.58;100700.31;332723;28;12003;-77
2023/12/19 00:17:25;;;;;;;9.40;5.53;;;;;;;0.85;98.55;100700.31;336945;28;4747;-77
2023/12/19 00:17:37;;;;;;;9.00;5.70;;;;;;;0.86;98.70;100704.59;335708;28;13416;-77
2023/12/19 00:17:49;;;;;;;9.02;5.38;;;;;;;0.87;98.92;100703.78;334658;28;4526;-77
2023/12/19 00:18:01;;;;;;;9.13;5.38;;;;;;;0.87;98.56;100701.22;330248;28;4660;-77
2023/12/19 00:18:14;;;;;;;10.07;5.25;;;;;;;0.87;98.12;100703.78;332853;28;6116;-77
2023/12/19 00:18:26;;;;;;;9.43;5.25;;;;;;;0.86;98.15;100702.88;336350;28;5416;-77
2023/12/19 00:18:38;;;;;;;8.15;4.78;;;;;;;0.88;98.10;100701.22;332780;28;18114;-77
2023/12/19 00:18:50;;;;;;;9.88;4.70;;;;;;;0.89;98.46;100707.25;335599;29;4645;-77
2023/12/19 00:19:03;;;;;;;9.60;4.80;;;;;;;0.88;97.85;100702.94;334952;29;4701;-77
2023/12/19 00:19:15;;;;;;;9.55;5.20;;;;;;;0.87;98.71;100698.66;329603;29;18323;-77
2023/12/19 00:19:27;;;;;;;8.95;4.93;;;;;;;0.88;98.59;100695.25;335469;28;5591;-77
2023/12/19 00:19:39;;;;;;;9.15;4.93;;;;;;;0.89;98.09;100697.84;330023;28;17771;-77
2023/12/19 00:19:51;;;;;;;9.75;5.15;;;;;;;0.90;98.22;100701.28;335926;28;5211;-77
2023/12/19 00:20:04;;;;;;;8.50;5.07;;;;;;;0.91;98.64;100710.69;332797;29;17995;-77
2023/12/19 00:20:16;;;;;;;8.30;4.85;;;;;;;0.91;98.38;100700.47;335691;28;4769;-77
2023/12/19 00:20:28;;;;;;;8.70;5.00;;;;;;;0.91;98.58;100691.06;333178;28;5155;-77
2023/12/19 00:20:41;;;;;;;9.32;5.03;;;;;;;0.91;98.64;100695.34;334701;29;5172;-77
2023/12/19 00:20:53;;;;;;;10.13;5.20;;;;;;;0.92;98.41;100697.06;334369;28;4611;-77
2023/12/19 00:21:05;;;;;;;8.90;4.97;;;;;;;0.89;98.33;100697.00;332262;29;18272;-77
2023/12/19 00:21:17;;;;;;;9.52;5.18;;;;;;;0.91;98.21;100700.47;334328;29;4754;-77
2023/12/19 00:21:29;;;;;;;10.20;5.50;;;;;;;0.92;98.27;100697.06;332067;29;10249;-77
2023/12/19 00:21:41;;;;;;;9.98;5.40;;;;;;;0.91;98.70;100695.34;333770;29;4612;-77
2023/12/19 00:21:54;;;;;;;9.30;5.07;;;;;;;0.91;98.35;100695.34;332406;29;13106;-77
2023/12/19 00:22:06;;;;;;;8.35;4.82;;;;;;;0.92;98.69;100699.63;332431;29;18325;-77
2023/12/19 00:22:18;;;;;;;7.65;4.45;;;;;;;0.91;98.76;100692.78;330007;29;4738;-77
2023/12/19 00:22:30;;;;;;;9.07;4.90;;;;;;;0.92;98.75;100691.94;332041;29;18110;-77
2023/12/19 00:22:42;;;;;;;8.95;4.97;;;;;;;0.94;98.25;100695.41;333211;29;5332;-77
2023/12/19 00:22:54;;;;;;;9.02;4.88;;;;;;;0.93;98.52;100699.66;330058;29;16303;-77
2023/12/19 00:23:06;;;;;;;9.20;4.72;;;;;;;0.94;98.75;100700.50;332310;29;5152;-77
2023/12/19 00:23:18;;;;;;;8.88;4.80;;;;;;;0.94;98.61;100695.41;333425;29;4647;-77
2023/12/19 00:23:30;;;;;;;8.93;5.05;;;;;;;0.94;98.45;100692.84;331564;28;18164;-77
2023/12/19 00:23:43;;;;;;;9.07;4.78;;;;;;;0.91;98.38;100700.47;336509;28;4919;-77
2023/12/19 00:23:55;;;;;;;10.27;5.00;;;;;;;0.88;98.60;100695.25;333588;28;4816;-77
2023/12/19 00:24:07;;;;;;;9.70;4.93;;;;;;;0.84;98.18;100694.31;335399;28;18970;-78
2023/12/19 00:24:19;;;;;;;9.07;4.85;;;;;;;0.85;98.59;100696.06;336010;28;5325;-77
2023/12/19 00:24:31;;;;;;;8.65;4.72;;;;;;;0.88;98.40;100697.81;333014;28;4863;-78
2023/12/19 00:24:43;;;;;;;8.55;4.63;;;;;;;0.90;98.81;100703.84;336421;28;5274;-77
2023/12/19 00:24:55;;;;;;;8.48;4.50;;;;;;;0.92;98.34;100700.47;333826;28;12971;-77
2023/12/19 00:25:07;;;;;;;9.48;4.55;;;;;;;0.95;98.69;100702.25;331754;28;4602;-77
2023/12/19 00:25:19;;;;;;;10.68;4.68;;;;;;;0.96;98.37;100703.97;335990;28;4762;-77
2023/12/19 00:25:31;;;;;;;10.05;4.97;;;;;;;0.92;98.62;100702.19;331493;28;19073;-77
2023/12/19 00:25:43;;;;;;;9.02;5.00;;;;;;;0.90;98.42;100701.28;336332;28;4549;-77
2023/12/19 00:25:56;;;;;;;9.20;5.18;;;;;;;0.90;98.10;100698.72;333506;28;5253;-77
2023/12/19 00:26:11;;;;;;;10.05;5.70;;;;;;;0.90;98.21;100702.13;336113;28;5804;-77
2023/12/19 00:26:23;;;;;;;10.82;5.72;;;;;;;0.90;98.78;100706.41;333896;28;18232;-77
2023/12/19 00:26:35;;;;;;;9.63;4.97;;;;;;;0.88;98.61;100705.50;332454;28;12829;-77
2023/12/19 00:26:48;;;;;;;9.75;4.82;;;;;;;0.89;98.78;100707.25;336013;28;4558;-77
2023/12/19 00:27:00;;;;;;;8.38;4.60;;;;;;;0.90;98.36;100701.28;333846;28;4822;-77
2023/12/19 00:27:12;;;;;;;7.97;4.50;;;;;;;0.90;98.16;100714.06;335329;28;4628;-77
2023/12/19 00:27:24;;;;;;;7.50;4.47;;;;;;;0.90;98.57;100706.41;336668;28;4546;-78
2023/12/19 00:27:36;;;;;;;7.90;4.78;;;;;;;0.91;98.56;100708.16;333669;28;17875;-77
2023/12/19 00:27:49;;;;;;;9.63;5.22;;;;;;;0.87;98.30;100706.34;335561;28;5098;-77
2023/12/19 00:28:01;;;;;;;8.80;5.13;;;;;;;0.90;98.29;100708.94;334948;28;13183;-77
2023/12/19 00:28:13;;;;;;;8.68;4.93;;;;;;;0.91;98.42;100710.69;332743;28;16286;-77
2023/12/19 00:28:27;;;;;;;8.73;4.78;;;;;;;0.93;98.90;100709.03;336490;28;4626;-77
2023/12/19 00:28:39;;;;;;;8.93;5.20;;;;;;;0.95;98.70;100712.50;333155;28;17787;-77
2023/12/19 00:28:51;;;;;;;8.27;4.70;;;;;;;0.96;98.71;100719.34;332739;28;18254;-77
2023/12/19 00:29:03;;;;;;;7.18;4.38;;;;;;;0.97;98.24;100713.41;336129;28;4524;-77
2023/12/19 00:29:15;;;;;;;6.63;4.25;;;;;;;0.98;98.23;100717.69;335925;28;4572;-77
2023/12/19 00:29:27;;;;;;;6.43;4.53;;;;;;;0.97;98.81;100710.84;328697;28;18118;-77
2023/12/19 00:29:40;;;;;;;8.05;4.88;;;;;;;0.96;98.18;100709.09;335782;28;4702;-77
2023/12/19 00:29:52;;;;;;;13.38;5.05;;;;;;;0.93;98.27;100714.16;333508;28;13976;-77
2023/12/19 00:30:04;;;;;;;15.07;5.43;;;;;;;0.93;98.39;100719.28;335872;28;5465;-77
2023/12/19 00:30:16;;;;;;;14.73;5.18;;;;;;;0.90;98.28;100714.94;333469;28;16549;-77
2023/12/19 00:30:28;;;;;;;11.25;5.30;;;;;;;0.88;98.53;100714.03;333826;29;6260;-78
2023/12/19 00:30:41;;;;;;;10.23;5.07;;;;;;;0.90;98.98;100719.19;333951;29;13429;-77
2023/12/19 00:30:54;;;;;;;9.63;4.95;;;;;;;0.89;98.51;100718.34;332020;29;12601;-77
2023/12/19 00:31:06;;;;;;;7.50;4.47;;;;;;;0.91;98.56;100715.81;332010;29;13381;-77
2023/12/19 00:31:22;;;;;;;7.43;4.60;;;;;;;0.91;98.77;100710.69;334511;29;4607;-77
2023/12/19 00:31:34;;;;;;;8.93;4.80;;;;;;;0.91;99.24;100714.13;331164;29;17957;-77
2023/12/19 00:31:46;;;;;;;9.77;5.13;;;;;;;0.92;98.54;100707.28;331796;29;18543;-77
2023/12/19 00:31:59;;;;;;;9.93;5.30;;;;;;;0.91;98.56;100711.56;334517;29;4653;-77
2023/12/19 00:32:11;;;;;;;8.63;5.22;;;;;;;0.92;99.17;100714.97;334753;29;4727;-77
2023/12/19 00:32:23;;;;;;;9.02;5.28;;;;;;;0.91;99.02;100715.81;327318;29;4821;-77
2023/12/19 00:32:35;;;;;;;9.70;5.30;;;;;;;0.90;99.23;100709.81;334928;28;4664;-77
2023/12/19 00:32:47;;;;;;;9.82;5.57;;;;;;;0.87;98.68;100708.91;333621;28;5494;-77
2023/12/19 00:32:59;;;;;;;11.25;6.00;;;;;;;0.84;98.93;100708.81;336266;28;5233;-78
2023/12/19 00:33:11;;;;;;;11.70;6.10;;;;;;;0.85;98.92;100710.56;336169;28;5383;-77
2023/12/19 00:33:23;;;;;;;10.23;5.97;;;;;;;0.82;98.83;100711.31;333119;28;18283;-77
2023/12/19 00:33:35;;;;;;;10.13;6.30;;;;;;;0.84;98.25;100706.25;337050;28;5299;-77
2023/12/19 00:33:48;;;;;;;9.50;6.07;;;;;;;0.84;98.82;100709.66;334656;28;5292;-77
2023/12/19 00:34:00;;;;;;;9.52;6.07;;;;;;;0.86;98.96;100709.72;337090;28;4723;-77
2023/12/19 00:34:13;;;;;;;9.88;6.00;;;;;;;0.87;98.81;100708.91;334885;28;7024;-77
2023/12/19 00:34:26;;;;;;;9.23;5.45;;;;;;;0.89;98.88;100714.91;337248;28;4715;-77
2023/12/19 00:34:39;;;;;;;9.48;5.63;;;;;;;0.89;98.95;100713.22;332964;28;16877;-77
2023/12/19 00:34:51;;;;;;;10.75;5.90;;;;;;;0.90;98.34;100716.63;336037;28;5406;-77
2023/12/19 00:35:04;;;;;;;12.75;6.10;;;;;;;0.91;98.20;100711.56;334397;28;19174;-77
2023/12/19 00:35:16;;;;;;;11.48;5.78;;;;;;;0.87;98.18;100714.88;330876;28;5444;-77
2023/12/19 00:35:29;;;;;;;10.75;5.70;;;;;;;0.90;98.58;100714.94;333336;28;17444;-77
2023/12/19 00:35:41;;;;;;;11.18;5.78;;;;;;;0.91;98.27;100710.69;334546;29;4572;-77
2023/12/19 00:35:53;;;;;;;11.82;6.00;;;;;;;0.92;98.08;100713.28;331826;28;12079;-77
2023/12/19 00:36:05;;;;;;;12.35;6.25;;;;;;;0.90;98.22;100720.06;333192;29;4600;-77
2023/12/19 00:36:21;;;;;;;11.10;6.15;;;;;;;0.84;97.74;100708.81;333654;29;5907;-77
2023/12/19 00:36:34;;;;;;;9.20;5.20;;;;;;;0.89;98.39;100722.59;330136;29;18227;-77
2023/12/19 00:36:46;;;;;;;10.70;5.30;;;;;;;0.91;98.45;100715.81;331393;29;16809;-77
2023/12/19 00:36:58;;;;;;;10.82;5.40;;;;;;;0.91;98.17;100715.81;331324;28;16694;-77
2023/12/19 00:37:11;;;;;;;12.05;5.63;;;;;;;0.93;97.92;100720.13;334657;29;4722;-77
2023/12/19 00:37:23;;;;;;;9.48;5.03;;;;;;;0.93;98.25;100716.72;333037;28;12594;-77
2023/12/19 00:37:35;;;;;;;8.90;5.18;;;;;;;0.92;97.63;100720.94;335751;28;4912;-77
2023/12/19 00:37:47;;;;;;;9.38;5.18;;;;;;;0.93;97.92;100716.72;335552;28;5360;-77
2023/12/19 00:38:02;;;;;;;10.18;5.50;;;;;;;0.91;97.48;100726.06;331406;28;19442;-77
2023/12/19 00:38:14;;;;;;;9.77;5.63;;;;;;;0.89;98.03;100717.47;327236;28;18300;-77
2023/12/19 00:38:26;;;;;;;10.35;6.20;;;;;;;0.89;97.73;100722.59;336066;28;5325;-77
2023/12/19 00:38:38;;;;;;;10.25;6.38;;;;;;;0.87;97.99;100724.25;333778;28;5345;-78
2023/12/19 00:38:50;;;;;;;9.48;5.88;;;;;;;0.85;97.73;100726.78;331346;28;18287;-77
2023/12/19 00:39:05;;;;;;;9.07;5.13;;;;;;;0.83;97.89;100720.75;335464;28;4726;-77
2023/12/19 00:39:17;;;;;;;10.07;5.25;;;;;;;0.84;97.91;100722.47;332530;28;17632;-78
2023/12/19 00:39:29;;;;;;;9.65;5.13;;;;;;;0.84;97.64;100729.28;332066;28;18328;-77
2023/12/19 00:39:41;;;;;;;9.60;5.40;;;;;;;0.86;97.60;100717.38;333705;28;17322;-77
2023/12/19 00:39:53;;;;;;;8.93;5.18;;;;;;;0.86;97.77;100722.50;336169;28;4700;-77
2023/12/19 00:40:06;;;;;;;9.30;5.03;;;;;;;0.89;97.86;100723.47;332698;28;18291;-77
2023/12/19 00:40:19;;;;;;;9.30;5.05;;;;;;;0.88;98.20;100723.41;332717;29;12079;-77
2023/12/19 00:40:31;;;;;;;9.75;5.10;;;;;;;0.89;97.88;100717.47;334723;29;17293;-77
2023/12/19 00:40:43;;;;;;;8.40;4.75;;;;;;;0.88;97.95;100725.97;335914;28;5152;-77
2023/12/19 00:40:55;;;;;;;8.98;4.88;;;;;;;0.89;97.61;100731.13;333339;28;18362;-77
2023/12/19 00:41:07;;;;;;;9.50;5.25;;;;;;;0.90;97.99;100730.28;334039;29;4619;-77
2023/12/19 00:41:19;;;;;;;9.65;5.57;;;;;;;0.92;97.68;100732.91;332182;29;12958;-77
2023/12/19 00:41:31;;;;;;;9.25;5.43;;;;;;;0.91;97.44;100720.94;327485;29;17451;-77
2023/12/19 00:41:43;;;;;;;9.02;5.43;;;;;;;0.90;97.38;100729.44;335014;29;4561;-77
2023/12/19 00:41:55;;;;;;;8.18;5.25;;;;;;;0.87;97.20;100725.13;331998;29;18336;-77
2023/12/19 00:42:07;;;;;;;7.75;4.75;;;;;;;0.88;97.61;100726.81;334325;28;5319;-77
2023/12/19 00:42:19;;;;;;;7.40;5.03;;;;;;;0.90;98.18;100726.88;334935;29;4784;-77
2023/12/19 00:42:31;;;;;;;9.15;5.28;;;;;;;0.88;97.26;100723.41;333271;28;17954;-77
2023/12/19 00:42:43;;;;;;;9.52;5.50;;;;;;;0.89;97.54;100723.47;335799;28;5074;-77
2023/12/19 00:42:55;;;;;;;8.38;5.07;;;;;;;0.91;97.58;100726.06;332102;29;18757;-77
2023/12/19 00:43:08;;;;;;;8.07;4.82;;;;;;;0.92;97.62;100727.78;334241;28;4602;-77
2023/12/19 00:43:20;;;;;;;8.10;4.95;;;;;;;0.93;97.23;100724.41;332648;29;5243;-77
2023/12/19 00:43:32;;;;;;;7.75;5.00;;;;;;;0.92;97.27;100723.50;333433;28;4812;-77
2023/12/19 00:43:45;;;;;;;8.63;5.13;;;;;;;0.91;97.03;100720.94;334319;29;5228;-77
2023/12/19 00:43:57;;;;;;;8.00;4.80;;;;;;;0.93;97.79;100725.25;332333;28;18222;-77
2023/12/19 00:44:09;;;;;;;8.07;5.10;;;;;;;0.92;97.53;100727.78;334825;29;4562;-77
2023/12/19 00:44:21;;;;;;;8.35;5.35;;;;;;;0.88;96.86;100725.97;331901;29;18232;-77
2023/12/19 00:44:36;;;;;;;8.65;5.43;;;;;;;0.87;97.35;100725.13;333901;28;5244;-78
2023/12/19 00:44:48;;;;;;;8.90;5.15;;;;;;;0.89;97.37;100722.59;331456;29;17899;-77
2023/12/19 00:45:00;;;;;;;8.55;4.80;;;;;;;0.91;97.03;100728.63;332841;28;13562;-77
2023/12/19 00:45:12;;;;;;;9.70;4.90;;;;;;;0.91;97.53;100726.06;330626;29;4866;-77
2023/12/19 00:45:24;;;;;;;8.90;4.78;;;;;;;0.92;97.09;100731.19;335127;28;4707;-78
2023/12/19 00:45:36;;;;;;;8.27;4.55;;;;;;;0.92;97.01;100727.78;333261;28;18119;-77
2023/12/19 00:45:48;;;;;;;8.82;4.68;;;;;;;0.94;97.22;100723.56;335649;28;5425;-77
2023/12/19 00:46:00;;;;;;;9.85;4.95;;;;;;;0.94;97.10;100721.00;333054;28;18420;-77
2023/12/19 00:46:12;;;;;;;9.38;4.75;;;;;;;0.91;96.66;100726.06;335074;28;5533;-77
2023/12/19 00:46:25;;;;;;;9.38;5.03;;;;;;;0.92;96.45;100722.66;334061;28;4616;-77
2023/12/19 00:46:36;;;;;;;9.68;4.95;;;;;;;0.91;96.64;100736.31;333154;28;6759;-77
2023/12/19 00:46:48;;;;;;;10.15;5.35;;;;;;;0.88;96.80;100731.09;331682;28;5478;-77
2023/12/19 00:47:00;;;;;;;10.05;5.40;;;;;;;0.87;96.76;100731.94;336442;28;5275;-78
2023/12/19 00:47:12;;;;;;;9.23;5.35;;;;;;;0.87;96.74;100734.50;333441;28;18140;-77
2023/12/19 00:47:24;;;;;;;9.57;5.38;;;;;;;0.89;96.85;100738.81;336454;28;5004;-77
2023/12/19 00:47:38;;;;;;;11.38;5.60;;;;;;;0.88;97.21;100733.66;328325;28;4758;-77
2023/12/19 00:47:50;;;;;;;10.55;5.18;;;;;;;0.89;96.69;100743.06;335948;28;10595;-77
2023/12/19 00:48:03;;;;;;;11.40;5.18;;;;;;;0.86;97.00;100732.75;327881;28;17991;-77
2023/12/19 00:48:15;;;;;;;10.88;5.13;;;;;;;0.80;97.53;100723.22;334999;28;5274;-77
2023/12/19 00:48:28;;;;;;;11.32;5.57;;;;;;;0.77;97.10;100736.81;332947;28;16867;-77
2023/12/19 00:48:40;;;;;;;11.60;5.70;;;;;;;0.75;98.03;100728.25;335411;28;4713;-77
2023/12/19 00:48:52;;;;;;;11.75;5.57;;;;;;;0.76;97.97;100729.94;333281;28;17981;-77
2023/12/19 00:49:04;;;;;;;11.05;5.80;;;;;;;0.78;97.79;100730.00;335082;28;5308;-77
2023/12/19 00:49:16;;;;;;;10.07;5.93;;;;;;;0.78;98.29;100725.75;333034;28;18207;-77
2023/12/19 00:49:29;;;;;;;9.27;5.65;;;;;;;0.75;98.11;100724.81;336312;28;4626;-77
2023/12/19 00:49:42;;;;;;;10.82;5.82;;;;;;;0.73;97.81;100729.91;330740;28;4776;-77
2023/12/19 00:49:54;;;;;;;11.93;6.10;;;;;;;0.72;97.83;100728.16;332670;28;18107;-77
2023/12/19 00:50:07;;;;;;;10.60;5.93;;;;;;;0.73;98.58;100731.59;332377;28;12771;-77
2023/12/19 00:50:20;;;;;;;10.20;5.60;;;;;;;0.73;98.27;100732.44;334357;28;4853;-77
2023/12/19 00:50:32;;;;;;;10.23;5.68;;;;;;;0.73;97.86;100726.47;332580;28;7568;-77
2023/12/19 00:50:44;;;;;;;11.43;5.70;;;;;;;0.71;97.94;100723.88;336501;28;4806;-77
2023/12/19 00:50:56;;;;;;;10.75;5.53;;;;;;;0.73;98.30;100722.22;336148;28;4718;-77
2023/12/19 00:51:10;;;;;;;9.48;5.20;;;;;;;0.73;98.31;100723.91;332940;28;17246;-77
2023/12/19 00:51:22;;;;;;;9.68;5.30;;;;;;;0.73;98.08;100727.34;334680;28;13261;-77
2023/12/19 00:51:34;;;;;;;9.80;5.18;;;;;;;0.75;98.47;100725.69;335675;28;4549;-77
2023/12/19 00:51:46;;;;;;;9.50;5.20;;;;;;;0.78;98.28;100725.75;336134;28;4576;-77
2023/12/19 00:52:00;;;;;;;9.52;5.35;;;;;;;0.79;97.75;100726.63;333715;28;18283;-77
2023/12/19 00:52:12;;;;;;;9.23;5.50;;;;;;;0.78;97.94;100723.19;332284;28;17686;-77
2023/12/19 00:52:27;;;;;;;9.73;5.60;;;;;;;0.78;98.55;100725.75;336403;28;4621;-77
2023/12/19 00:52:39;;;;;;;9.35;5.22;;;;;;;0.79;98.29;100727.47;325102;28;19536;-78
2023/12/19 00:52:51;;;;;;;9.20;5.25;;;;;;;0.80;98.25;100723.22;335212;28;5247;-77
2023/12/19 00:53:03;;;;;;;9.15;5.53;;;;;;;0.78;97.95;100724.88;332106;28;18362;-77
2023/12/19 00:53:15;;;;;;;9.35;5.60;;;;;;;0.77;97.45;100718.91;336863;28;4733;-77
2023/12/19 00:53:27;;;;;;;8.73;5.50;;;;;;;0.77;97.59;100724.03;335161;28;5310;-77
2023/12/19 00:53:41;;;;;;;8.85;5.43;;;;;;;0.77;98.03;100724.03;332700;28;17367;-77
2023/12/19 00:53:53;;;;;;;8.43;5.20;;;;;;;0.77;98.24;100734.25;335643;28;8698;-78
2023/12/19 00:54:05;;;;;;;8.35;4.90;;;;;;;0.78;97.58;100728.28;333138;28;18286;-77
2023/12/19 00:54:17;;;;;;;9.50;5.25;;;;;;;0.75;97.70;100725.69;335236;28;5021;-77
2023/12/19 00:54:29;;;;;;;9.70;5.53;;;;;;;0.74;97.49;100731.59;332578;28;15629;-77
2023/12/19 00:54:41;;;;;;;9.23;5.72;;;;;;;0.76;97.86;100719.72;335677;28;5097;-77
2023/12/19 00:54:53;;;;;;;9.13;5.70;;;;;;;0.77;97.87;100726.56;333263;28;17991;-77
2023/12/19 00:55:06;;;;;;;10.85;5.78;;;;;;;0.78;97.94;100723.19;333581;29;5282;-77
2023/12/19 00:55:18;;;;;;;9.75;5.55;;;;;;;0.82;97.67;100725.81;334592;28;14619;-77
2023/12/19 00:55:30;;;;;;;9.45;5.18;;;;;;;0.83;97.83;100727.56;328183;28;17682;-77
2023/12/19 00:55:42;;;;;;;8.77;5.00;;;;;;;0.85;97.70;100731.03;334990;29;4599;-77
2023/12/19 00:55:54;;;;;;;8.73;5.18;;;;;;;0.85;97.68;100721.66;332406;29;13157;-77
2023/12/19 00:56:08;;;;;;;9.00;5.30;;;;;;;0.86;97.57;100730.19;335163;28;4687;-77
2023/12/19 00:56:20;;;;;;;9.40;5.45;;;;;;;0.86;97.52;100727.63;332920;28;17869;-77
2023/12/19 00:56:34;;;;;;;9.55;5.68;;;;;;;0.83;96.95;100727.56;333362;28;11716;-77
2023/12/19 00:56:46;;;;;;;11.18;5.88;;;;;;;0.77;97.49;100731.69;335865;28;4603;-77
2023/12/19 00:56:58;;;;;;;10.40;5.70;;;;;;;0.74;97.54;100729.06;331639;29;4724;-77
2023/12/19 00:57:10;;;;;;;9.85;5.45;;;;;;;0.74;97.78;100729.06;332597;28;17729;-77
2023/12/19 00:57:22;;;;;;;8.65;5.00;;;;;;;0.75;97.67;100724.81;335910;28;4827;-78
2023/12/19 00:57:34;;;;;;;8.90;5.35;;;;;;;0.74;97.76;100730.75;333467;28;13263;-77
2023/12/19 00:57:46;;;;;;;9.55;5.70;;;;;;;0.75;97.07;100735.91;336205;28;4622;-77
2023/12/19 00:57:58;;;;;;;9.90;5.35;;;;;;;0.72;97.74;100728.16;336203;28;4584;-77
2023/12/19 00:58:10;;;;;;;10.32;4.97;;;;;;;0.69;97.79;100730.66;332537;28;17962;-77
2023/12/19 00:58:22;;;;;;;9.07;4.90;;;;;;;0.70;97.45;100732.34;336042;28;4553;-77
2023/12/19 00:58:38;;;;;;;9.57;5.40;;;;;;;0.66;97.68;100725.44;333050;28;19107;-77
2023/12/19 00:58:50;;;;;;;10.57;5.85;;;;;;;0.68;98.14;100728.03;328040;28;17667;-77
2023/12/19 00:59:02;;;;;;;9.70;5.53;;;;;;;0.68;98.11;100728.91;336353;28;5121;-77